Time,TemperatureF,DewpointF,PressureIn,WindDirection,WindDirectionDegrees,WindSpeedMPH,WindSpeedGustMPH,Humidity,HourlyPrecipIn,Conditions,Clouds,dailyrainin,SolarRadiationWatts/m^2,SoftwareType,DateUTC
2013-11-02 00:02:00,34.0,31.0,-100.00,NW,322,3.0,5.0,89,0.00,,,0.00,0.000000,,2013-11-02 06:02:00,
2013-11-02 00:12:00,34.0,31.0,-100.00,NW,322,3.0,5.0,89,0.00,,,0.00,0.000000,,2013-11-02 06:12:00,
2013-11-02 00:21:00,34.0,31.0,-100.00,NW,322,3.0,5.0,89,0.00,,,0.00,0.000000,,2013-11-02 06:21:00,
2013-11-02 00:52:00,32.0,29.0,-100.00,NNE,23,2.0,7.0,87,0.00,,,0.00,0.000000,,2013-11-02 06:52:00,
2013-11-02 01:03:00,32.0,29.0,-100.00,NNE,23,2.0,7.0,87,0.00,,,0.00,0.000000,,2013-11-02 07:03:00,
2013-11-02 01:12:00,32.0,29.0,-100.00,NNE,23,2.0,7.0,87,0.00,,,0.00,0.000000,,2013-11-02 07:12:00,
2013-11-02 01:21:00,32.0,29.0,-100.00,NNE,23,2.0,7.0,87,0.00,,,0.00,0.000000,,2013-11-02 07:21:00,
2013-11-02 01:52:00,35.0,32.0,-100.00,NE,42,4.0,5.0,90,0.00,,,0.00,0.000000,,2013-11-02 07:52:00,
2013-11-02 02:02:00,35.0,32.0,-100.00,NE,42,4.0,5.0,90,0.00,,,0.00,0.000000,,2013-11-02 08:02:00,
2013-11-02 02:12:00,35.0,32.0,-100.00,NE,42,4.0,5.0,90,0.00,,,0.00,0.000000,,2013-11-02 08:12:00,
2013-11-02 02:21:00,35.0,32.0,-100.00,NE,42,4.0,5.0,90,0.00,,,0.00,0.000000,,2013-11-02 08:21:00,
2013-11-02 02:52:00,34.0,31.0,-100.00,NNE,29,5.0,7.0,88,0.00,,,0.00,0.000000,,2013-11-02 08:52:00,
2013-11-02 03:02:00,34.0,31.0,-100.00,NNE,29,5.0,7.0,88,0.00,,,0.00,0.000000,,2013-11-02 09:02:00,
2013-11-02 03:11:00,34.0,31.0,-100.00,NNE,29,5.0,7.0,88,0.00,,,0.00,0.000000,,2013-11-02 09:11:00,
2013-11-02 03:21:00,34.0,31.0,-100.00,NNE,29,5.0,7.0,88,0.00,,,0.00,0.000000,,2013-11-02 09:21:00,
2013-11-02 03:53:00,35.0,34.0,-100.00,East,81,5.0,10.0,95,0.00,,,0.00,0.000000,,2013-11-02 09:53:00,
2013-11-02 04:03:00,35.0,34.0,-100.00,East,81,5.0,10.0,95,0.00,,,0.00,0.000000,,2013-11-02 10:03:00,
2013-11-02 04:12:00,35.0,34.0,-100.00,East,81,5.0,10.0,95,0.00,,,0.00,0.000000,,2013-11-02 10:12:00,
2013-11-02 04:23:00,35.0,34.0,-100.00,East,81,5.0,10.0,95,0.00,,,0.00,0.000000,,2013-11-02 10:23:00,
2013-11-02 04:53:00,38.0,33.0,-100.00,East,96,10.0,15.0,83,0.00,,,0.00,0.000000,,2013-11-02 10:53:00,
2013-11-02 05:02:00,38.0,33.0,-100.00,East,96,10.0,15.0,83,0.00,,,0.00,0.000000,,2013-11-02 11:02:00,
2013-11-02 05:12:00,38.0,33.0,-100.00,East,96,10.0,15.0,83,0.00,,,0.00,0.000000,,2013-11-02 11:12:00,
2013-11-02 05:22:00,38.0,33.0,-100.00,East,96,10.0,15.0,83,0.00,,,0.00,0.000000,,2013-11-02 11:22:00,
2013-11-02 05:52:00,38.0,33.0,-100.00,East,100,13.0,17.0,83,0.00,,,0.00,0.000000,,2013-11-02 11:52:00,
2013-11-02 06:02:00,38.0,33.0,-100.00,East,100,13.0,17.0,83,0.00,,,0.00,0.000000,,2013-11-02 12:02:00,
2013-11-02 06:11:00,38.0,33.0,-100.00,East,100,13.0,17.0,83,0.00,,,0.00,0.000000,,2013-11-02 12:11:00,
2013-11-02 06:21:00,38.0,33.0,-100.00,East,100,13.0,17.0,83,0.00,,,0.00,0.000000,,2013-11-02 12:21:00,
2013-11-02 06:52:00,38.0,33.0,-100.00,East,96,15.0,21.0,81,0.00,,,0.00,0.000000,,2013-11-02 12:52:00,
2013-11-02 07:02:00,38.0,33.0,-100.00,East,96,15.0,21.0,81,0.00,,,0.00,0.000000,,2013-11-02 13:02:00,
2013-11-02 07:11:00,38.0,33.0,-100.00,East,96,15.0,21.0,81,0.00,,,0.00,0.000000,,2013-11-02 13:11:00,
2013-11-02 07:21:00,38.0,33.0,-100.00,East,96,15.0,21.0,81,0.00,,,0.00,0.000000,,2013-11-02 13:21:00,
2013-11-02 07:52:00,38.0,32.0,-100.00,ESE,102,15.0,21.0,80,0.00,,,0.00,0.000000,,2013-11-02 13:52:00,
2013-11-02 08:01:00,38.0,32.0,-100.00,ESE,102,15.0,21.0,80,0.00,,,0.00,0.000000,,2013-11-02 14:01:00,
2013-11-02 08:11:00,38.0,32.0,-100.00,ESE,102,15.0,21.0,80,0.00,,,0.00,0.000000,,2013-11-02 14:11:00,
2013-11-02 08:21:00,38.0,32.0,-100.00,ESE,102,15.0,21.0,80,0.00,,,0.00,0.000000,,2013-11-02 14:21:00,
2013-11-02 08:52:00,38.0,32.0,-100.00,East,85,12.0,17.0,80,0.00,,,-99.99,1.000000,,2013-11-02 14:52:00,
2013-11-02 09:02:00,38.0,32.0,-100.00,East,85,12.0,17.0,80,0.00,,,-99.99,1.000000,,2013-11-02 15:02:00,
2013-11-02 09:11:00,38.0,32.0,-100.00,East,85,12.0,17.0,80,0.00,,,-99.99,1.000000,,2013-11-02 15:11:00,
2013-11-02 09:22:00,38.0,32.0,-100.00,East,85,12.0,17.0,80,0.00,,,-99.99,1.000000,,2013-11-02 15:22:00,
2013-11-02 09:53:00,41.0,33.0,-100.00,East,100,16.0,22.0,74,0.00,,,0.00,36.000000,,2013-11-02 15:53:00,
2013-11-02 10:03:00,41.0,33.0,-100.00,East,100,16.0,22.0,74,0.00,,,0.00,36.000000,,2013-11-02 16:03:00,
2013-11-02 10:13:00,41.0,33.0,-100.00,East,100,16.0,22.0,74,0.00,,,0.00,36.000000,,2013-11-02 16:13:00,
2013-11-02 10:23:00,41.0,33.0,-100.00,East,100,16.0,22.0,74,0.00,,,0.00,36.000000,,2013-11-02 16:23:00,
2013-11-02 10:54:00,48.0,35.0,-100.00,East,91,16.0,26.0,60,0.00,,,-99.99,222.000000,,2013-11-02 16:54:00,
2013-11-02 11:03:00,48.0,35.0,-100.00,East,91,16.0,26.0,60,0.00,,,-99.99,222.000000,,2013-11-02 17:03:00,
2013-11-02 11:12:00,48.0,35.0,-100.00,East,91,16.0,26.0,60,0.00,,,-99.99,222.000000,,2013-11-02 17:12:00,
2013-11-02 11:22:00,48.0,35.0,-100.00,East,91,16.0,26.0,60,0.00,,,-99.99,222.000000,,2013-11-02 17:22:00,
2013-11-02 11:53:00,53.0,35.0,-100.00,ESE,103,21.0,28.0,51,0.00,,,0.00,363.000000,,2013-11-02 17:53:00,
2013-11-02 12:02:00,53.0,35.0,-100.00,ESE,103,21.0,28.0,51,0.00,,,0.00,363.000000,,2013-11-02 18:02:00,
2013-11-02 12:12:00,53.0,35.0,-100.00,ESE,103,21.0,28.0,51,0.00,,,0.00,363.000000,,2013-11-02 18:12:00,
2013-11-02 12:21:00,53.0,35.0,-100.00,ESE,103,21.0,28.0,51,0.00,,,0.00,363.000000,,2013-11-02 18:21:00,
2013-11-02 12:52:00,57.0,35.0,-100.00,East,99,20.0,28.0,43,0.00,,,0.00,448.000000,,2013-11-02 18:52:00,
2013-11-02 13:01:00,57.0,35.0,-100.00,East,99,20.0,28.0,43,0.00,,,0.00,448.000000,,2013-11-02 19:01:00,
2013-11-02 13:11:00,57.0,35.0,-100.00,East,99,20.0,28.0,43,0.00,,,0.00,448.000000,,2013-11-02 19:11:00,
2013-11-02 13:21:00,57.0,35.0,-100.00,East,99,20.0,28.0,43,0.00,,,0.00,448.000000,,2013-11-02 19:21:00,
2013-11-02 13:52:00,61.0,35.0,-100.00,ESE,107,15.0,24.0,38,0.00,,,0.00,338.000000,,2013-11-02 19:52:00,
2013-11-02 14:02:00,61.0,35.0,-100.00,ESE,107,15.0,24.0,38,0.00,,,0.00,338.000000,,2013-11-02 20:02:00,
2013-11-02 14:12:00,61.0,35.0,-100.00,ESE,107,15.0,24.0,38,0.00,,,0.00,338.000000,,2013-11-02 20:12:00,
2013-11-02 14:21:00,61.0,35.0,-100.00,ESE,107,15.0,24.0,38,0.00,,,0.00,338.000000,,2013-11-02 20:21:00,
2013-11-02 14:53:00,58.0,34.0,-100.00,East,94,10.0,18.0,41,0.00,,,0.00,134.000000,,2013-11-02 20:53:00,
2013-11-02 15:02:00,58.0,34.0,-100.00,East,94,10.0,18.0,41,0.00,,,0.00,134.000000,,2013-11-02 21:02:00,
2013-11-02 15:12:00,58.0,34.0,-100.00,East,94,10.0,18.0,41,0.00,,,0.00,134.000000,,2013-11-02 21:12:00,
2013-11-02 15:21:00,58.0,34.0,-100.00,East,94,10.0,18.0,41,0.00,,,0.00,134.000000,,2013-11-02 21:21:00,
2013-11-02 15:54:00,58.0,36.0,-100.00,NW,321,7.0,12.0,43,0.00,,,0.00,55.000000,,2013-11-02 21:54:00,
2013-11-02 16:03:00,58.0,36.0,-100.00,NW,321,7.0,12.0,43,0.00,,,0.00,55.000000,,2013-11-02 22:03:00,
2013-11-02 16:13:00,58.0,36.0,-100.00,NW,321,7.0,12.0,43,0.00,,,0.00,55.000000,,2013-11-02 22:13:00,
2013-11-02 16:24:00,58.0,36.0,-100.00,NW,321,7.0,12.0,43,0.00,,,0.00,55.000000,,2013-11-02 22:24:00,
2013-11-02 16:54:00,54.0,38.0,-100.00,WNW,292,22.0,29.0,55,0.00,,,0.00,61.000000,,2013-11-02 22:54:00,
2013-11-02 17:02:00,54.0,38.0,-100.00,WNW,292,22.0,29.0,55,0.00,,,0.00,61.000000,,2013-11-02 23:02:00,
2013-11-02 17:12:00,54.0,38.0,-100.00,WNW,292,22.0,29.0,55,0.00,,,0.00,61.000000,,2013-11-02 23:12:00,
2013-11-02 17:21:00,54.0,38.0,-100.00,WNW,292,22.0,29.0,55,0.00,,,0.00,61.000000,,2013-11-02 23:21:00,
2013-11-02 17:52:00,51.0,40.0,-100.00,WNW,282,15.0,30.0,65,0.00,,,0.00,18.000000,,2013-11-02 23:52:00,
2013-11-02 18:01:00,51.0,40.0,-100.00,WNW,282,15.0,30.0,65,0.00,,,0.00,18.000000,,2013-11-03 00:01:00,
2013-11-02 18:11:00,51.0,40.0,-100.00,WNW,282,15.0,30.0,65,0.00,,,0.00,18.000000,,2013-11-03 00:11:00,
2013-11-02 18:21:00,51.0,40.0,-100.00,WNW,282,15.0,30.0,65,0.00,,,0.00,18.000000,,2013-11-03 00:21:00,
2013-11-02 18:52:00,48.0,41.0,-100.00,NW,326,6.0,24.0,77,0.00,,,0.00,9.000000,,2013-11-03 00:52:00,
2013-11-02 19:02:00,48.0,41.0,-100.00,NW,326,6.0,24.0,77,0.00,,,0.00,9.000000,,2013-11-03 01:02:00,
2013-11-02 19:11:00,48.0,41.0,-100.00,NW,326,6.0,24.0,77,0.00,,,0.00,9.000000,,2013-11-03 01:11:00,
2013-11-02 19:21:00,48.0,41.0,-100.00,NW,326,6.0,24.0,77,0.00,,,0.00,9.000000,,2013-11-03 01:21:00,
2013-11-02 19:52:00,47.0,42.0,-100.00,WNW,287,1.0,7.0,82,0.00,,,0.00,1.000000,,2013-11-03 01:52:00,
2013-11-02 20:02:00,47.0,42.0,-100.00,WNW,287,1.0,7.0,82,0.00,,,0.00,1.000000,,2013-11-03 02:02:00,
2013-11-02 20:11:00,47.0,42.0,-100.00,WNW,287,1.0,7.0,82,0.00,,,0.00,1.000000,,2013-11-03 02:11:00,
2013-11-02 20:21:00,47.0,42.0,-100.00,WNW,287,1.0,7.0,82,0.00,,,0.00,1.000000,,2013-11-03 02:21:00,
2013-11-02 20:52:00,45.0,42.0,-100.00,SW,233,3.0,5.0,88,0.00,,,0.00,0.000000,,2013-11-03 02:52:00,
2013-11-02 21:02:00,45.0,42.0,-100.00,SW,233,3.0,5.0,88,0.00,,,0.00,0.000000,,2013-11-03 03:02:00,
2013-11-02 21:11:00,45.0,42.0,-100.00,SW,233,3.0,5.0,88,0.00,,,0.00,0.000000,,2013-11-03 03:11:00,
2013-11-02 21:21:00,45.0,42.0,-100.00,SW,233,3.0,5.0,88,0.00,,,0.00,0.000000,,2013-11-03 03:21:00,
2013-11-02 21:54:00,44.0,37.0,-100.00,WNW,284,10.0,14.0,75,0.00,,,-99.99,0.000000,,2013-11-03 03:54:00,
2013-11-02 22:02:00,-999.0,-99.9,-100.00,WNW,284,10.0,14.0,-999,-99.99,,,-99.99,0.000000,,2013-11-03 04:02:00,
2013-11-02 22:13:00,44.0,37.0,-100.00,WNW,284,10.0,14.0,75,0.00,,,-99.99,0.000000,,2013-11-03 04:13:00,
2013-11-02 22:23:00,44.0,37.0,-100.00,WNW,284,10.0,14.0,75,0.00,,,-99.99,0.000000,,2013-11-03 04:23:00,
2013-11-02 22:52:00,42.0,31.0,-100.00,West,276,13.0,19.0,66,0.00,,,0.00,0.000000,,2013-11-03 04:52:00,
2013-11-02 23:03:00,42.0,31.0,-100.00,West,276,13.0,19.0,66,0.00,,,0.00,0.000000,,2013-11-03 05:03:00,
2013-11-02 23:13:00,42.0,31.0,-100.00,West,276,13.0,19.0,66,0.00,,,0.00,0.000000,,2013-11-03 05:13:00,
2013-11-02 23:22:00,42.0,31.0,-100.00,West,276,13.0,19.0,66,0.00,,,0.00,0.000000,,2013-11-03 05:22:00,
2013-11-02 23:53:00,42.0,29.0,-100.00,West,276,16.0,23.0,59,0.00,,,0.00,0.000000,,2013-11-03 05:53:00,